KVBG/VBG METAR and TAF weather

Enter ICAO airport designator
Station Type Date Time Source
KVBG METAR 2021/09/24 06:58 UTC NOAA

KVBG 240658Z AUTO 00000KT 1SM R30/P6000FT BR VV001 13/13 A2993 RMK AO2 VIS 1V1 3/4 SLPNO $


Station Type Date Time Source
KVBG Decoded METAR 2021/09/24 06:58 UTC NOAA

Lompoc, Vandenberg Air Force Base, CA, United States (KVBG) 34-43-46N 120-34-36W 121M
Sep 24, 2021 - 02:58 AM EDT / 2021.09.24 0658 UTC
Wind: Calm:0
Visibility: 1 mile(s):0
Sky conditions: obscured
Weather: mist
Temperature: 55 F (13 C)
Dew Point: 55 F (13 C)
Relative Humidity: 100%
Pressure (altimeter): 29.93 in. Hg (1013 hPa)
ob: KVBG 240658Z AUTO 00000KT 1SM R30/P6000FT BR VV001 13/13 A2993 RMK AO2 VIS 1V1 3/4 SLPNO
cycle: 7

Station Type Date Time Source
KVBG TAF 2021/09/23 22:03 UTC NOAA

TAF KVBG 232200Z 2322/2504 31010KT 9999 FEW009 BKN250 QNH2989INS
BECMG 2401/2402 34009KT 4800 BR OVC003 QNH2988INS
BECMG 2406/2407 34007KT 3200 BR OVC002 QNH2990INS
BECMG 2407/2408 34007KT 0800 FG VV001 QNH2990INS
BECMG 2410/2411 35006KT 2400 -DZ BR OVC003 QNH2991INS
BECMG 2415/2416 34006KT 4800 BR OVC003 QNH2993INS
BECMG 2417/2418 34010KT 9999 NSW OVC006 QNH2994INS
BECMG 2420/2421 34010KT 9999 SCT006 QNH2992INS
BECMG 2501/2502 VRB06KT 3200 BR OVC003 QNH2990INS TX19/2322Z TN13/2414Z LAST NO
AMDS AFT 2400 NEXT 2414

Example: see airport list